マニラ/ニノイ・アキノ の空港の天気 - METARとTAF

ニノイ・アキノ国際空港 ( RPLL / MNL ) - フィリピン マニラ
飛行場実況気象(Metar)
観測時間08/26 03:00 PHT (08/25 19:00 UTC)
風向・風速南 1m/s
視程10km以上
天気現象
全天の8割程度の雲 雲底高度 610m
全天を覆う雲 雲底高度 2740m
気温26℃
湿度94%
気圧1008hPa
METARRPLL 251900Z 17002KT 9999 BKN020 OVC090 26/25 Q1008 NOSIG RMK A2977
過去の天気等 Google飛行場航空写真 Wunderground天気予報

過去48時間のMETAR

飛行場予報(TAF)
発表時間: 8/26 01:00 PHT (8/25 17:00 UTC)
予報対象時間: 26日2時 PHT ~ 27日8時 PHT
風向・風速西 3m/s
視程10km以上
少しの雲 雲底高度 700m
全天の8割程度の雲 雲底高度 3050m
26日2時 PHT ~ 26日8時 PHT に一時的に
風向・風速不定 2m/s
視程8000m
天気現象弱い雨
少しの雲 雲底高度 610m
全天を覆う雲 雲底高度 2740m
26日8時 PHT ~ 26日14時 PHT に一時的に
風向・風速西南西 6m/s
視程9000m
天気現象弱いしゅう雨
少しの積乱雲 雲底高度 700m
全天の8割程度の雲 雲底高度 2740m
TAF RPLL 251700Z 2518/2624 26006KT 9999 FEW023 BKN100 TX30/2606Z TN25/2521Z
TEMPO 2518/2524 VRB03KT 8000 -RA FEW020 OVC090
TEMPO 2600/2606 24012KT 9000 -SHRA FEW023CB BKN090